createdAt,value
2019-06-01T00:00:52.160Z,95.62
2019-06-01T00:01:52.172Z,96.14
2019-06-01T00:02:56.540Z,95.93
2019-06-01T00:03:52.122Z,96.03
2019-06-01T00:04:52.197Z,96.14
2019-06-01T00:05:52.102Z,96.14
2019-06-01T00:06:52.112Z,96.03
2019-06-01T00:07:53.119Z,95.52
2019-06-01T00:08:52.075Z,95.52
2019-06-01T00:09:52.126Z,96.14
2019-06-01T00:10:52.035Z,96.34
2019-06-01T00:11:52.035Z,96.03
2019-06-01T00:12:52.050Z,96.44
2019-06-01T00:13:52.096Z,96.14
2019-06-01T00:14:52.010Z,96.44
2019-06-01T00:15:52.037Z,96.34
2019-06-01T00:16:51.978Z,96.34
2019-06-01T00:17:51.979Z,96.34
2019-06-01T00:18:52.039Z,95.93
2019-06-01T00:19:51.949Z,96.23
2019-06-01T00:20:52.738Z,95.87
2019-06-01T00:21:52.290Z,95.47
2019-06-01T00:22:51.921Z,96.18
2019-06-01T00:23:52.826Z,95.97
2019-06-01T00:24:52.324Z,96.38
2019-06-01T00:25:52.901Z,96.38
2019-06-01T00:26:52.142Z,96.69
2019-06-01T00:27:52.897Z,95.97
2019-06-01T00:28:53.020Z,95.97
2019-06-01T00:29:53.063Z,96.38
2019-06-01T00:30:52.104Z,96.28
2019-06-01T00:31:52.857Z,96.08
2019-06-01T00:32:51.808Z,95.97
2019-06-01T00:33:51.869Z,96.28
2019-06-01T00:34:51.928Z,96.53
2019-06-01T00:35:51.800Z,96.12
2019-06-01T00:36:51.994Z,96.22
2019-06-01T00:37:51.894Z,96.22
2019-06-01T00:38:52.082Z,96.33
2019-06-01T00:39:52.054Z,96.12
2019-06-01T00:40:52.059Z,96.22
2019-06-01T00:41:52.521Z,96.33
2019-06-01T00:42:52.471Z,96.73
2019-06-01T00:43:52.491Z,97.04
2019-06-01T00:44:52.521Z,97.04
2019-06-01T00:45:53.026Z,97.14
2019-06-01T00:46:52.696Z,97.14
2019-06-01T00:47:53.037Z,97.24
2019-06-01T00:48:52.103Z,97.24
2019-06-01T00:49:52.946Z,96.37
2019-06-01T00:50:51.619Z,96.73
2019-06-01T00:51:52.133Z,97.04
2019-06-01T00:52:51.664Z,97.04
2019-06-01T00:53:51.949Z,97.34
2019-06-01T00:54:51.797Z,97.34
2019-06-01T00:55:51.678Z,97.29
2019-06-01T00:56:51.784Z,96.78
2019-06-01T00:57:51.883Z,96.98
2019-06-01T00:58:51.970Z,96.78
2019-06-01T00:59:53.139Z,97.08
2019-06-01T01:00:53.440Z,97.19
2019-06-01T01:01:52.362Z,97.39
2019-06-01T01:02:52.190Z,96.78
2019-06-01T01:03:52.342Z,97.60
2019-06-01T01:04:52.484Z,97.60
2019-06-01T01:05:52.648Z,97.80
2019-06-01T01:06:52.714Z,97.49
2019-06-01T01:07:52.142Z,96.88
2019-06-01T01:08:52.830Z,96.78
2019-06-01T01:09:51.389Z,97.19
2019-06-01T01:10:51.389Z,97.24
2019-06-01T01:11:51.444Z,96.58
2019-06-01T01:12:51.350Z,96.83
2019-06-01T01:13:51.431Z,97.33
2019-06-01T01:14:51.342Z,97.64
2019-06-01T01:15:51.451Z,97.54
2019-06-01T01:16:51.681Z,97.13
2019-06-01T01:17:52.014Z,97.39
2019-06-01T01:18:51.947Z,97.64
2019-06-01T01:19:51.959Z,97.54
2019-06-01T01:20:52.047Z,97.60
2019-06-01T01:21:52.151Z,97.19
2019-06-01T01:22:52.228Z,97.33
2019-06-01T01:23:53.031Z,97.74
2019-06-01T01:24:52.320Z,97.13
2019-06-01T01:25:52.499Z,96.83
2019-06-01T01:26:51.203Z,96.62
2019-06-01T01:27:51.249Z,96.62
2019-06-01T01:28:51.191Z,96.87
2019-06-01T01:29:51.274Z,96.87
2019-06-01T01:31:05.539Z,97.13
2019-06-01T01:31:53.161Z,96.92
2019-06-01T01:32:51.712Z,96.87
2019-06-01T01:33:51.391Z,97.24
2019-06-01T01:34:51.594Z,97.58
2019-06-01T01:35:52.616Z,98.25
2019-06-01T01:36:52.747Z,97.74
2019-06-01T01:37:51.971Z,97.38
2019-06-01T01:38:52.229Z,97.33
2019-06-01T01:39:52.168Z,97.33
2019-06-01T01:40:52.125Z,97.49
2019-06-01T01:41:52.096Z,97.17
2019-06-01T01:42:52.269Z,97.58
2019-06-01T01:43:52.662Z,97.49
2019-06-01T01:44:50.988Z,97.28
2019-06-01T01:45:51.076Z,97.58
2019-06-01T01:46:51.032Z,97.69
2019-06-01T01:47:50.971Z,97.69
2019-06-01T01:48:51.962Z,97.49
2019-06-01T01:49:52.013Z,97.99
2019-06-01T01:50:52.291Z,98.20
2019-06-01T01:51:50.913Z,97.38
2019-06-01T01:52:50.934Z,97.69
2019-06-01T01:53:50.904Z,97.58
2019-06-01T01:54:50.975Z,97.58
2019-06-01T01:55:51.023Z,97.38
2019-06-01T01:56:52.009Z,97.83
2019-06-01T01:57:51.198Z,97.08
2019-06-01T01:58:52.192Z,97.58
2019-06-01T01:59:51.291Z,97.69
2019-06-01T02:00:54.025Z,97.94
2019-06-01T02:01:50.819Z,97.94
2019-06-01T02:02:51.829Z,97.28
2019-06-01T02:03:51.685Z,97.83
2019-06-01T02:04:51.677Z,97.94
2019-06-01T02:05:52.940Z,98.04
2019-06-01T02:06:51.847Z,97.74
2019-06-01T02:07:51.009Z,97.94
2019-06-01T02:08:51.028Z,97.83
2019-06-01T02:09:51.113Z,97.89
2019-06-01T02:10:51.186Z,97.79
2019-06-01T02:11:51.388Z,98.40
2019-06-01T02:12:51.328Z,98.14
2019-06-01T02:13:51.541Z,98.50
2019-06-01T02:14:51.645Z,98.14
2019-06-01T02:15:52.177Z,98.45
2019-06-01T02:16:51.807Z,97.63
2019-06-01T02:17:52.019Z,97.63
2019-06-01T02:18:53.855Z,97.33
2019-06-01T02:19:50.618Z,97.63
2019-06-01T02:20:50.641Z,97.74
2019-06-01T02:21:50.594Z,97.88
2019-06-01T02:22:52.946Z,97.88
2019-06-01T02:23:50.661Z,97.88
2019-06-01T02:24:50.561Z,98.08
2019-06-01T02:25:50.592Z,97.98
2019-06-01T02:26:50.533Z,97.88
2019-06-01T02:27:50.651Z,98.08
2019-06-01T02:28:50.594Z,97.88
2019-06-01T02:29:50.527Z,97.78
2019-06-01T02:30:50.624Z,97.78
2019-06-01T02:31:50.477Z,97.78
2019-06-01T02:32:50.566Z,97.88
2019-06-01T02:33:50.447Z,98.08
2019-06-01T02:34:50.547Z,98.39
2019-06-01T02:35:50.430Z,98.29
2019-06-01T02:36:50.441Z,98.08
2019-06-01T02:37:50.399Z,98.14
2019-06-01T02:38:50.481Z,98.19
2019-06-01T02:39:50.403Z,97.67
2019-06-01T02:40:50.411Z,97.98
2019-06-01T02:41:50.372Z,98.19
2019-06-01T02:42:50.452Z,97.98
2019-06-01T02:43:50.352Z,97.88
2019-06-01T02:44:50.354Z,98.33
2019-06-01T02:45:51.369Z,98.19
2019-06-01T02:46:50.303Z,98.08
2019-06-01T02:47:50.385Z,98.29
2019-06-01T02:48:50.285Z,97.88
2019-06-01T02:49:50.287Z,98.08
2019-06-01T02:50:50.291Z,98.54
2019-06-01T02:51:50.258Z,98.03
2019-06-01T02:52:50.328Z,97.88
2019-06-01T02:53:50.240Z,97.67
2019-06-01T02:54:50.238Z,98.49
2019-06-01T02:55:50.210Z,98.33
2019-06-01T02:56:50.312Z,98.33
2019-06-01T02:57:50.190Z,97.92
2019-06-01T02:58:50.244Z,98.54
2019-06-01T02:59:50.171Z,97.98
2019-06-01T03:00:50.160Z,98.54
2019-06-01T03:01:57.455Z,98.19
2019-06-01T03:02:51.124Z,98.39
2019-06-01T03:03:50.177Z,98.24
2019-06-01T03:04:50.114Z,98.49
2019-06-01T03:05:50.097Z,98.39
2019-06-01T03:06:50.118Z,98.13
2019-06-01T03:07:50.148Z,98.44
2019-06-01T03:08:50.068Z,98.13
2019-06-01T03:09:50.137Z,98.33
2019-06-01T03:10:50.164Z,98.03
2019-06-01T03:11:50.049Z,98.24
2019-06-01T03:12:50.091Z,98.03
2019-06-01T03:13:50.000Z,98.13
2019-06-01T03:14:50.022Z,98.44
2019-06-01T03:15:50.030Z,98.03
2019-06-01T03:16:49.982Z,98.03
2019-06-01T03:17:50.031Z,98.03
2019-06-01T03:18:49.947Z,98.03
2019-06-01T03:19:50.994Z,97.92
2019-06-01T03:20:49.974Z,97.92
2019-06-01T03:21:49.925Z,97.92
2019-06-01T03:22:49.976Z,97.92
2019-06-01T03:23:49.914Z,97.92
2019-06-01T03:24:49.905Z,98.13
2019-06-01T03:25:49.898Z,98.54
2019-06-01T03:26:49.966Z,98.44
2019-06-01T03:27:49.846Z,98.18
2019-06-01T03:28:49.878Z,98.07
2019-06-01T03:29:49.828Z,98.13
2019-06-01T03:30:49.850Z,98.03
2019-06-01T03:31:49.803Z,98.03
2019-06-01T03:32:49.861Z,97.72
2019-06-01T03:33:49.781Z,98.03
2019-06-01T03:34:49.892Z,98.03
2019-06-01T03:35:49.782Z,98.54
2019-06-01T03:36:49.753Z,98.54
2019-06-01T03:37:49.794Z,98.13
2019-06-01T03:38:49.734Z,98.13
2019-06-01T03:39:49.837Z,98.38
2019-06-01T03:40:49.727Z,98.13
2019-06-01T03:41:49.695Z,98.33
2019-06-01T03:42:49.676Z,98.44
2019-06-01T03:43:49.700Z,98.13
2019-06-01T03:44:49.657Z,98.33
2019-06-01T03:45:49.677Z,98.33
2019-06-01T03:46:49.638Z,98.44
2019-06-01T03:47:49.668Z,98.44
2019-06-01T03:48:49.618Z,98.08
2019-06-01T03:49:49.710Z,98.33
2019-06-01T03:50:49.610Z,97.72
2019-06-01T03:51:49.662Z,98.03
2019-06-01T03:52:49.581Z,98.03
2019-06-01T03:53:49.571Z,97.82
2019-06-01T03:54:49.542Z,97.31
2019-06-01T03:55:49.662Z,97.62
2019-06-01T03:56:49.523Z,97.62
2019-06-01T03:57:49.514Z,97.72
2019-06-01T03:58:49.625Z,97.52
2019-06-01T03:59:49.486Z,97.52
2019-06-01T04:00:49.596Z,97.62
2019-06-01T04:01:49.476Z,97.82
2019-06-01T04:02:49.467Z,97.88
2019-06-01T04:03:49.457Z,97.88
2019-06-01T04:04:49.527Z,97.62
2019-06-01T04:05:49.448Z,97.47
2019-06-01T04:06:49.473Z,97.62
2019-06-01T04:07:49.444Z,98.08
2019-06-01T04:08:49.391Z,98.29
2019-06-01T04:09:49.470Z,98.08
2019-06-01T04:10:49.362Z,98.19
2019-06-01T04:11:49.452Z,98.39
2019-06-01T04:12:49.342Z,97.67
2019-06-01T04:13:49.442Z,97.88
2019-06-01T04:14:49.326Z,97.57
2019-06-01T04:15:49.384Z,97.67
2019-06-01T04:16:49.335Z,97.88
2019-06-01T04:17:49.319Z,97.98
2019-06-01T04:18:49.285Z,98.19
2019-06-01T04:19:49.368Z,97.74
2019-06-01T04:20:49.267Z,96.81
2019-06-01T04:21:49.337Z,96.34
2019-06-01T04:22:49.227Z,96.66
2019-06-01T04:23:49.219Z,96.45
2019-06-01T04:24:49.292Z,96.34
2019-06-01T04:25:49.200Z,96.34
2019-06-01T04:26:50.292Z,96.66
2019-06-01T04:27:49.180Z,96.45
2019-06-01T04:28:49.161Z,96.66
2019-06-01T04:29:49.151Z,96.45
2019-06-01T04:30:49.210Z,96.30
2019-06-01T04:31:49.153Z,96.86
2019-06-01T04:32:50.471Z,96.75
2019-06-01T04:33:49.213Z,97.12
2019-06-01T04:34:49.109Z,97.16
2019-06-01T04:35:49.147Z,96.71
2019-06-01T04:36:49.086Z,96.81
2019-06-01T04:37:49.178Z,96.61
2019-06-01T04:38:49.060Z,96.92
2019-06-01T04:39:49.107Z,96.61
2019-06-01T04:40:49.033Z,96.71
2019-06-01T04:41:49.088Z,96.92
2019-06-01T04:42:49.071Z,96.10
2019-06-01T04:43:49.091Z,96.20
2019-06-01T04:44:49.000Z,96.41
2019-06-01T04:45:49.025Z,96.20
2019-06-01T04:46:49.002Z,96.36
2019-06-01T04:47:49.064Z,96.61
2019-06-01T04:48:48.971Z,96.20
2019-06-01T04:49:48.935Z,96.41
2019-06-01T04:50:48.923Z,95.85
2019-06-01T04:51:48.925Z,96.05
2019-06-01T04:52:48.915Z,95.79
2019-06-01T04:53:48.968Z,95.85
2019-06-01T04:54:48.881Z,95.89
2019-06-01T04:55:48.876Z,95.69
2019-06-01T04:56:48.977Z,95.75
2019-06-01T04:57:48.867Z,95.75
2019-06-01T04:58:48.911Z,95.95
2019-06-01T04:59:48.829Z,96.26
2019-06-01T05:00:48.819Z,96.05
2019-06-01T05:01:48.919Z,95.44
2019-06-01T05:02:56.569Z,95.64
2019-06-01T05:03:49.771Z,95.64
2019-06-01T05:04:48.838Z,96.05
2019-06-01T05:05:48.753Z,95.85
2019-06-01T05:06:48.854Z,95.85
2019-06-01T05:07:48.756Z,96.05
2019-06-01T05:08:48.799Z,95.85
2019-06-01T05:09:48.704Z,96.15
2019-06-01T05:10:49.744Z,95.64
2019-06-01T05:11:48.695Z,95.54
2019-06-01T05:12:48.816Z,95.75
2019-06-01T05:13:48.677Z,95.90
2019-06-01T05:14:48.702Z,95.95
2019-06-01T05:15:48.648Z,95.85
2019-06-01T05:16:48.638Z,95.75
2019-06-01T05:17:48.628Z,95.70
2019-06-01T05:18:48.669Z,96.11
2019-06-01T05:19:48.601Z,95.90
2019-06-01T05:20:48.599Z,96.31
2019-06-01T05:21:48.591Z,96.31
2019-06-01T05:22:50.632Z,96.31
2019-06-01T05:23:48.560Z,95.80
2019-06-01T05:24:49.604Z,95.50
2019-06-01T05:25:48.543Z,95.90
2019-06-01T05:26:48.592Z,95.29
2019-06-01T05:27:48.533Z,95.09
2019-06-01T05:28:48.554Z,95.39
2019-06-01T05:29:48.495Z,95.70
2019-06-01T05:30:48.588Z,95.60
2019-06-01T05:31:48.466Z,95.60
2019-06-01T05:32:48.596Z,95.70
2019-06-01T05:33:48.437Z,95.80
2019-06-01T05:34:48.464Z,95.70
2019-06-01T05:35:48.423Z,95.60
2019-06-01T05:36:48.602Z,95.50
2019-06-01T05:37:48.409Z,95.45
2019-06-01T05:38:48.430Z,95.15
2019-06-01T05:39:48.382Z,95.76
2019-06-01T05:40:48.473Z,94.74
2019-06-01T05:41:48.363Z,95.76
2019-06-01T05:42:48.367Z,95.56
2019-06-01T05:43:48.343Z,95.72
2019-06-01T05:44:48.335Z,95.51
2019-06-01T05:45:48.321Z,95.61
2019-06-01T05:46:48.375Z,95.41
2019-06-01T05:47:48.385Z,95.97
2019-06-01T05:48:48.276Z,95.87
2019-06-01T05:49:49.296Z,95.62
2019-06-01T05:50:48.247Z,95.21
2019-06-01T05:51:49.338Z,95.42
2019-06-01T05:52:48.273Z,95.93
2019-06-01T05:53:49.329Z,95.48
2019-06-01T05:54:48.219Z,95.39
2019-06-01T05:55:48.294Z,94.96
2019-06-01T05:56:48.190Z,90.99
2019-06-01T05:57:48.230Z,90.17
2019-06-01T05:58:48.246Z,87.84
2019-06-01T05:59:48.153Z,84.49
2019-06-01T06:00:48.227Z,77.70
2019-06-01T06:01:48.115Z,75.05
2019-06-01T06:02:48.163Z,73.47
2019-06-01T06:03:48.173Z,72.67
2019-06-01T06:04:48.094Z,71.13
2019-06-01T06:05:48.336Z,71.94
2019-06-01T06:06:48.078Z,70.73
2019-06-01T06:07:48.156Z,69.02
2019-06-01T06:08:48.128Z,66.52
2019-06-01T06:09:48.049Z,64.63
2019-06-01T06:10:48.124Z,62.77
2019-06-01T06:11:48.029Z,60.82
2019-06-01T06:12:48.039Z,59.06
2019-06-01T06:13:48.065Z,58.22
2019-06-01T06:14:47.981Z,56.37
2019-06-01T06:15:48.063Z,55.91
2019-06-01T06:16:47.977Z,54.17
2019-06-01T06:17:47.986Z,53.33
2019-06-01T06:18:47.956Z,51.25
2019-06-01T06:19:48.023Z,51.12
2019-06-01T06:20:47.912Z,50.90
2019-06-01T06:21:47.969Z,51.30
2019-06-01T06:22:47.905Z,51.57
2019-06-01T06:23:47.988Z,50.93
2019-06-01T06:24:47.876Z,50.43
2019-06-01T06:25:47.927Z,49.05
2019-06-01T06:26:47.848Z,49.25
2019-06-01T06:27:47.869Z,49.35
2019-06-01T06:28:47.835Z,47.94
2019-06-01T06:29:47.811Z,48.11
2019-06-01T06:30:47.870Z,47.60
2019-06-01T06:31:47.814Z,48.36
2019-06-01T06:32:47.813Z,46.88
2019-06-01T06:33:56.541Z,46.09
2019-06-01T06:34:48.876Z,46.37
2019-06-01T06:35:47.763Z,45.57
2019-06-01T06:36:47.792Z,47.25
2019-06-01T06:37:47.734Z,46.34
2019-06-01T06:38:47.766Z,46.25
2019-06-01T06:39:47.794Z,45.43
2019-06-01T06:40:47.718Z,46.18
2019-06-01T06:41:47.731Z,44.78
2019-06-01T06:42:47.674Z,43.38
2019-06-01T06:43:48.748Z,42.92
2019-06-01T06:44:47.659Z,42.92
2019-06-01T06:45:47.703Z,42.21
2019-06-01T06:46:47.641Z,43.19
2019-06-01T06:47:47.748Z,41.33
2019-06-01T06:48:47.623Z,42.02
2019-06-01T06:49:47.723Z,42.32
2019-06-01T06:50:47.584Z,42.98
2019-06-01T06:51:47.604Z,42.19
2019-06-01T06:52:47.699Z,42.57
2019-06-01T06:53:47.647Z,41.66
2019-06-01T06:54:47.555Z,41.55
2019-06-01T06:55:47.536Z,41.21
2019-06-01T06:56:47.517Z,39.82
2019-06-01T06:57:48.539Z,39.80
2019-06-01T06:58:47.521Z,38.81
2019-06-01T06:59:47.601Z,38.22
2019-06-01T07:00:47.492Z,39.41
2019-06-01T07:01:47.490Z,39.74
2019-06-01T07:02:47.466Z,39.82
2019-06-01T07:03:47.572Z,40.33
2019-06-01T07:04:47.442Z,41.72
2019-06-01T07:05:47.463Z,41.76
2019-06-01T07:06:47.418Z,41.96
2019-06-01T07:07:47.493Z,42.02
2019-06-01T07:08:48.948Z,41.09
2019-06-01T07:09:47.494Z,39.61
2019-06-01T07:10:47.379Z,39.00
2019-06-01T07:11:47.367Z,40.25
2019-06-01T07:12:47.349Z,39.43
2019-06-01T07:13:49.373Z,37.95
2019-06-01T07:14:47.345Z,36.57
2019-06-01T07:15:47.340Z,39.47
2019-06-01T07:16:47.317Z,39.92
2019-06-01T07:17:48.405Z,37.54
2019-06-01T07:18:47.272Z,38.61
2019-06-01T07:19:47.362Z,39.62
2019-06-01T07:20:47.255Z,36.43
2019-06-01T07:21:47.354Z,39.06
2019-06-01T07:22:47.261Z,43.51
2019-06-01T07:23:48.317Z,42.00
2019-06-01T07:24:47.256Z,41.03
2019-06-01T07:25:49.204Z,41.62
2019-06-01T07:26:47.197Z,39.49
2019-06-01T07:27:47.196Z,36.33
2019-06-01T07:28:47.234Z,38.43
2019-06-01T07:29:47.515Z,41.66
2019-06-01T07:30:50.376Z,42.04
2019-06-01T07:31:47.132Z,43.23
2019-06-01T07:32:47.134Z,44.87
2019-06-01T07:33:47.172Z,47.18
2019-06-01T07:34:47.114Z,45.47
2019-06-01T07:35:47.153Z,47.71
2019-06-01T07:36:47.102Z,50.53
2019-06-01T07:37:47.075Z,56.97
2019-06-01T07:38:47.070Z,53.33
2019-06-01T07:39:47.076Z,52.79
2019-06-01T07:40:47.050Z,53.80
2019-06-01T07:41:47.041Z,54.33
2019-06-01T07:42:47.009Z,54.03
2019-06-01T07:43:47.012Z,56.81
2019-06-01T07:44:46.992Z,58.33
2019-06-01T07:45:48.061Z,57.19
2019-06-01T07:46:47.008Z,58.91
2019-06-01T07:47:46.974Z,58.41
2019-06-01T07:48:46.962Z,58.01
2019-06-01T07:49:46.963Z,55.95
2019-06-01T07:50:46.937Z,57.02
2019-06-01T07:51:48.092Z,58.11
2019-06-01T07:52:46.966Z,58.81
2019-06-01T07:53:46.906Z,58.41
2019-06-01T07:54:46.906Z,60.80
2019-06-01T07:55:46.889Z,63.06
2019-06-01T07:56:46.870Z,60.84
2019-06-01T07:57:46.859Z,59.92
2019-06-01T07:58:46.879Z,54.67
2019-06-01T07:59:46.842Z,49.87
2019-06-01T08:00:46.864Z,47.58
2019-06-01T08:01:46.795Z,43.57
2019-06-01T08:02:46.803Z,41.64
2019-06-01T08:03:46.783Z,43.87
2019-06-01T08:04:53.390Z,45.00
2019-06-01T08:05:47.774Z,44.53
2019-06-01T08:06:48.498Z,43.34
2019-06-01T08:07:46.735Z,42.52
2019-06-01T08:08:46.866Z,41.11
2019-06-01T08:09:46.728Z,42.19
2019-06-01T08:10:46.848Z,40.78
2019-06-01T08:11:46.708Z,39.98
2019-06-01T08:12:47.763Z,35.23
2019-06-01T08:13:46.804Z,31.77
2019-06-01T08:14:46.660Z,31.27
2019-06-01T08:15:46.804Z,35.86
2019-06-01T08:16:46.643Z,32.24
2019-06-01T08:17:46.772Z,33.25
2019-06-01T08:18:46.745Z,30.65
2019-06-01T08:19:46.626Z,30.52
2019-06-01T08:20:46.714Z,29.43
2019-06-01T08:21:46.595Z,28.54
2019-06-01T08:22:46.715Z,28.93
2019-06-01T08:23:46.577Z,31.04
2019-06-01T08:24:46.657Z,30.93
2019-06-01T08:25:46.570Z,32.13
2019-06-01T08:26:46.581Z,33.58
2019-06-01T08:27:46.520Z,35.94
2019-06-01T08:28:46.620Z,37.76
2019-06-01T08:29:46.490Z,39.50
2019-06-01T08:30:46.603Z,42.61
2019-06-01T08:31:46.475Z,43.55
2019-06-01T08:32:46.602Z,44.87
2019-06-01T08:33:46.463Z,47.44
2019-06-01T08:34:46.457Z,44.13
2019-06-01T08:35:46.489Z,45.14
2019-06-01T08:36:46.575Z,46.05
2019-06-01T08:37:46.416Z,46.64
2019-06-01T08:38:46.534Z,46.47
2019-06-01T08:39:46.467Z,38.01
2019-06-01T08:40:46.379Z,36.53
2019-06-01T08:41:46.449Z,34.11
2019-06-01T08:42:46.359Z,33.09
2019-06-01T08:43:47.473Z,33.72
2019-06-01T08:44:46.330Z,30.98
2019-06-01T08:45:46.384Z,31.79
2019-06-01T08:46:46.333Z,32.09
2019-06-01T08:47:46.422Z,34.65
2019-06-01T08:48:46.303Z,36.80
2019-06-01T08:49:46.355Z,39.01
2019-06-01T08:50:46.433Z,38.18
2019-06-01T08:51:46.335Z,41.27
2019-06-01T08:52:46.253Z,41.89
2019-06-01T08:53:46.330Z,43.29
2019-06-01T08:54:46.231Z,44.76
2019-06-01T08:55:46.219Z,44.22
2019-06-01T08:56:46.220Z,43.65
2019-06-01T08:57:46.311Z,44.65
2019-06-01T08:58:46.190Z,44.70
2019-06-01T08:59:46.245Z,47.56
2019-06-01T09:00:46.311Z,46.55
2019-06-01T09:01:46.162Z,47.77
2019-06-01T09:02:46.243Z,49.02
2019-06-01T09:03:47.009Z,47.25
2019-06-01T09:04:46.174Z,48.41
2019-06-01T09:05:46.105Z,44.05
2019-06-01T09:06:46.157Z,40.11
2019-06-01T09:07:46.087Z,36.91
2019-06-01T09:08:46.159Z,39.40
2019-06-01T09:09:46.068Z,40.16
2019-06-01T09:10:46.188Z,39.87
2019-06-01T09:11:46.245Z,39.47
2019-06-01T09:12:46.122Z,38.71
2019-06-01T09:13:46.021Z,41.39
2019-06-01T09:14:46.072Z,40.25
2019-06-01T09:15:46.000Z,42.03
2019-06-01T09:16:45.986Z,38.12
2019-06-01T09:17:45.983Z,36.76
2019-06-01T09:18:46.033Z,38.85
2019-06-01T09:19:45.955Z,34.43
2019-06-01T09:20:46.078Z,33.29
2019-06-01T09:21:46.049Z,30.77
2019-06-01T09:22:48.192Z,33.64
2019-06-01T09:23:45.983Z,35.52
2019-06-01T09:24:45.910Z,35.74
2019-06-01T09:25:46.009Z,36.94
2019-06-01T09:26:45.969Z,37.84
2019-06-01T09:27:45.984Z,36.93
2019-06-01T09:28:45.854Z,36.41
2019-06-01T09:29:45.982Z,34.60
2019-06-01T09:30:45.843Z,33.23
2019-06-01T09:31:45.923Z,33.80
2019-06-01T09:32:45.834Z,33.59
2019-06-01T09:33:45.866Z,33.89
2019-06-01T09:34:45.795Z,32.32
2019-06-01T09:35:55.630Z,32.32
2019-06-01T09:36:46.766Z,33.61
2019-06-01T09:37:47.422Z,33.82
2019-06-01T09:38:45.800Z,33.34
2019-06-01T09:39:45.729Z,33.33
2019-06-01T09:40:45.928Z,33.30
2019-06-01T09:41:45.721Z,33.17
2019-06-01T09:42:45.710Z,31.88
2019-06-01T09:43:45.691Z,31.79
2019-06-01T09:44:45.812Z,33.65
2019-06-01T09:45:45.677Z,33.69
2019-06-01T09:46:46.776Z,35.53
2019-06-01T09:47:46.027Z,35.70
2019-06-01T09:48:45.635Z,37.90
2019-06-01T09:49:46.665Z,37.93
2019-06-01T09:50:45.616Z,36.82
2019-06-01T09:51:45.687Z,39.40
2019-06-01T09:52:45.612Z,40.43
2019-06-01T09:53:45.578Z,41.91
2019-06-01T09:54:45.581Z,40.94
2019-06-01T09:55:45.660Z,41.25
2019-06-01T09:56:45.560Z,44.43
2019-06-01T09:57:45.655Z,43.17
2019-06-01T09:58:45.674Z,42.68
2019-06-01T09:59:45.533Z,43.88
2019-06-01T10:00:45.594Z,43.37
2019-06-01T10:01:45.534Z,41.89
2019-06-01T10:02:45.577Z,42.01
2019-06-01T10:03:45.475Z,43.69
2019-06-01T10:04:45.577Z,43.61
2019-06-01T10:06:00.690Z,43.35
2019-06-01T10:06:46.447Z,45.31
2019-06-01T10:07:45.531Z,47.17
2019-06-01T10:08:45.430Z,42.52
2019-06-01T10:09:45.420Z,42.40
2019-06-01T10:10:45.490Z,44.78
2019-06-01T10:11:45.394Z,43.49
2019-06-01T10:12:45.461Z,42.22
2019-06-01T10:13:45.372Z,43.51
2019-06-01T10:14:45.352Z,43.02
2019-06-01T10:15:45.343Z,43.63
2019-06-01T10:16:45.397Z,43.53
2019-06-01T10:17:45.335Z,44.05
2019-06-01T10:18:45.437Z,43.55
2019-06-01T10:19:45.307Z,41.97
2019-06-01T10:20:45.301Z,42.14
2019-06-01T10:21:45.339Z,42.64
2019-06-01T10:22:45.288Z,42.14
2019-06-01T10:23:49.180Z,43.63
2019-06-01T10:24:45.239Z,42.72
2019-06-01T10:25:45.230Z,41.44
2019-06-01T10:26:45.233Z,41.44
2019-06-01T10:27:45.284Z,42.57
2019-06-01T10:28:45.204Z,42.17
2019-06-01T10:29:45.283Z,43.75
2019-06-01T10:30:45.299Z,43.73
2019-06-01T10:31:45.176Z,44.52
2019-06-01T10:32:45.242Z,44.82
2019-06-01T10:33:45.157Z,46.38
2019-06-01T10:34:45.234Z,44.87
2019-06-01T10:35:45.123Z,47.74
2019-06-01T10:36:45.147Z,46.63
2019-06-01T10:37:45.118Z,46.53
2019-06-01T10:38:45.242Z,43.27
2019-06-01T10:39:45.079Z,44.46
2019-06-01T10:40:45.132Z,44.56
2019-06-01T10:41:45.051Z,44.78
2019-06-01T10:42:45.131Z,44.78
2019-06-01T10:43:45.042Z,43.21
2019-06-01T10:44:45.985Z,43.51
2019-06-01T10:45:45.024Z,44.52
2019-06-01T10:46:45.015Z,44.82
2019-06-01T10:47:45.015Z,45.31
2019-06-01T10:48:45.076Z,45.83
2019-06-01T10:49:44.966Z,44.84
2019-06-01T10:50:45.007Z,45.34
2019-06-01T10:51:44.948Z,46.82
2019-06-01T10:52:45.051Z,46.30
2019-06-01T10:53:44.940Z,44.24
2019-06-01T10:54:44.991Z,45.23
2019-06-01T10:55:44.905Z,45.93
2019-06-01T10:56:45.021Z,43.75
2019-06-01T10:57:44.901Z,46.23
2019-06-01T10:58:59.154Z,48.40
2019-06-01T10:59:45.864Z,45.01
2019-06-01T11:00:50.500Z,42.74
2019-06-01T11:01:45.839Z,44.42
2019-06-01T11:02:44.843Z,44.82
2019-06-01T11:03:44.967Z,44.31
2019-06-01T11:04:44.807Z,43.93
2019-06-01T11:05:44.940Z,43.91
2019-06-01T11:06:48.601Z,44.50
2019-06-01T11:07:44.779Z,44.80
2019-06-01T11:08:44.789Z,45.96
2019-06-01T11:09:44.810Z,47.74
2019-06-01T11:10:44.743Z,48.63
2019-06-01T11:11:44.843Z,47.44
2019-06-01T11:12:44.712Z,45.07
2019-06-01T11:13:44.724Z,43.39
2019-06-01T11:14:45.773Z,42.50
2019-06-01T11:15:44.666Z,43.61
2019-06-01T11:16:44.796Z,43.83
2019-06-01T11:17:44.675Z,44.42
2019-06-01T11:18:44.676Z,45.90
2019-06-01T11:19:44.648Z,45.21
2019-06-01T11:20:44.768Z,44.32
2019-06-01T11:21:44.639Z,45.04
2019-06-01T11:22:45.730Z,46.72
2019-06-01T11:23:46.553Z,43.75
2019-06-01T11:24:44.592Z,43.83
2019-06-01T11:25:45.722Z,46.08
2019-06-01T11:26:44.567Z,44.50
2019-06-01T11:27:44.633Z,44.31
2019-06-01T11:28:44.566Z,45.89
2019-06-01T11:29:51.065Z,48.16
2019-06-01T11:30:45.570Z,45.68
2019-06-01T11:31:44.520Z,44.50
2019-06-01T11:32:45.107Z,42.22
2019-06-01T11:33:44.520Z,43.24
2019-06-01T11:34:44.584Z,44.64
2019-06-01T11:35:45.464Z,44.92
2019-06-01T11:37:03.206Z,44.32
2019-06-01T11:37:45.453Z,43.33
2019-06-01T11:38:45.551Z,44.84
2019-06-01T11:39:44.845Z,46.23
2019-06-01T11:40:44.837Z,45.43
2019-06-01T11:41:44.830Z,44.56
2019-06-01T11:42:45.085Z,44.67
2019-06-01T11:43:46.127Z,44.86
2019-06-01T11:44:44.924Z,44.76
2019-06-01T11:45:45.240Z,47.22
2019-06-01T11:46:45.109Z,47.69
2019-06-01T11:47:45.127Z,44.32
2019-06-01T11:48:45.379Z,45.14
2019-06-01T11:49:45.074Z,44.45
2019-06-01T11:50:45.358Z,45.12
2019-06-01T11:51:45.290Z,46.11
2019-06-01T11:52:45.583Z,45.01
2019-06-01T11:53:45.681Z,42.54
2019-06-01T11:54:45.439Z,46.80
2019-06-01T11:55:45.548Z,43.83
2019-06-01T11:56:45.451Z,46.01
2019-06-01T11:57:45.913Z,45.90
2019-06-01T11:58:45.505Z,48.38
2019-06-01T11:59:45.589Z,43.83
2019-06-01T12:00:44.196Z,43.83
2019-06-01T12:01:44.256Z,47.02
2019-06-01T12:02:44.228Z,45.53
2019-06-01T12:03:44.171Z,47.71
2019-06-01T12:04:44.299Z,43.95
2019-06-01T12:05:44.238Z,42.36
2019-06-01T12:06:44.155Z,43.55
2019-06-01T12:07:44.271Z,44.56
2019-06-01T12:08:46.206Z,46.05
2019-06-01T12:09:44.242Z,44.76
2019-06-01T12:10:45.192Z,45.85
2019-06-01T12:11:44.284Z,43.97
2019-06-01T12:12:44.386Z,43.18
2019-06-01T12:13:44.540Z,43.08
2019-06-01T12:14:44.513Z,44.09
2019-06-01T12:15:44.364Z,44.59
2019-06-01T12:16:44.782Z,43.62
2019-06-01T12:17:44.878Z,44.04
2019-06-01T12:18:44.732Z,44.83
2019-06-01T12:19:44.740Z,45.23
2019-06-01T12:20:44.925Z,45.72
2019-06-01T12:21:45.236Z,46.44
2019-06-01T12:22:45.013Z,45.72
2019-06-01T12:23:45.531Z,47.63
2019-06-01T12:24:45.043Z,49.29
2019-06-01T12:25:44.346Z,47.41
2019-06-01T12:26:43.914Z,47.01
2019-06-01T12:27:43.905Z,45.12
2019-06-01T12:28:45.832Z,45.32
2019-06-01T12:29:43.907Z,44.13
2019-06-01T12:30:43.937Z,45.32
2019-06-01T12:31:43.863Z,46.12
2019-06-01T12:32:44.156Z,46.59
2019-06-01T12:33:44.214Z,45.70
2019-06-01T12:34:44.094Z,45.30
2019-06-01T12:35:44.056Z,43.71
2019-06-01T12:36:44.634Z,45.90
2019-06-01T12:37:59.595Z,44.78
2019-06-01T12:38:44.794Z,46.57
2019-06-01T12:39:44.441Z,45.75
2019-06-01T12:40:43.766Z,46.55
2019-06-01T12:41:43.895Z,45.06
2019-06-01T12:42:44.170Z,44.96
2019-06-01T12:43:43.737Z,43.97
2019-06-01T12:44:43.837Z,46.64
2019-06-01T12:45:43.827Z,48.33
2019-06-01T12:46:43.950Z,47.52
2019-06-01T12:47:43.984Z,48.60
2019-06-01T12:48:43.920Z,44.45
2019-06-01T12:49:44.074Z,46.72
2019-06-01T12:50:47.806Z,42.57
2019-06-01T12:51:44.722Z,43.26
2019-06-01T12:52:44.429Z,43.08